< < Back
Terminal Aerodrome Forecast


Current Version              Previous Versions:   1  2  3  4  5  6  7  8  9  

Terminal Aerodrome Forecast

575
FTUS42 KMLB 232342
TAFDAB
TAF
KDAB 232342Z 2400/2424 VRB03KT P6SM FEW025 FEW070 BKN250
     FM241400 32005KT P6SM SCT025
     FM241700 05008KT P6SM SCT035=

Latest METAR

606
SAUS80 KWBC 242000
MTRDAB
METAR KDAB 241953Z 05011KT 10SM FEW035 SCT250 31/23 A3000 RMK AO2 SLP158
CB DSNT S TCU DSNT SW-NW T03060228


USA.gov is the U.S. government's official web portal to all federal, state and local government web resources and services.